< < Back
Terminal Aerodrome Forecast


Current Version              Previous Versions:   1  2  3  4  5  6  7  8  9  

Terminal Aerodrome Forecast

126
FTUS42 KILM 201700
TAFFLO
TAF
KFLO 201720Z 2018/2118 25007KT P6SM SCT250
      TEMPO 2018/2022 25012G19KT
     FM210700 30005KT P6SM SCT250
     FM211330 01010G15KT P6SM SCT250=



Latest METAR

145
SAUS70 KWBC 210200 RRI
MTRFLO
METAR KFLO 210153Z 23003KT 10SM CLR 08/00 A3017 RMK AO2 SLP215
T00830000


USA.gov is the U.S. government's official web portal to all federal, state and local government web resources and services.